Terminal Aerodrome Forecast
Issued by NWS

Home | Current Version | Previous Version | Text Only | Print | Product List | Glossary On
Versions: 1 2 3 4 5 6 7 8 9 10 11 12 13 14 15 16 17 18 19
000
FTUS41 KBOX 281502 AAA
TAFACK
TAF AMD
KACK 281502Z 2815/2912 25008KT P6SM SCT008 BKN015
     FM281700 21008KT P6SM BKN015
     FM281900 19009KT P6SM BKN025
     FM282200 18008KT P6SM BKN015
     FM290000 15006KT 6SM BR VCSH BKN008
     FM290200 12009KT 6SM BR VCSH BKN008
     FM290700 08012KT 6SM BR VCSH BKN008
     FM291000 06014KT 6SM -RA BR OVC008=

USA.gov is the U.S. government's official web portal to all federal, state and local government web resources and services.